sensor_id;sensor_type;location;lat;lon;timestamp;P1;durP1;ratioP1;P2;durP2;ratioP2
16890;SDS011;8562;52.246;20.966;2023-02-28T11:52:21;9.50;;;5.20;;
16890;SDS011;8562;52.246;20.966;2023-02-28T11:54:53;6.60;;;4.80;;
16890;SDS011;8562;52.246;20.966;2023-02-28T12:13:26;7.67;;;4.63;;
16890;SDS011;8562;52.246;20.966;2023-02-28T12:28:09;8.27;;;5.50;;
16890;SDS011;8562;52.246;20.966;2023-02-28T12:30:36;7.90;;;5.30;;
16890;SDS011;8562;52.246;20.966;2023-02-28T12:38:14;6.73;;;4.40;;
16890;SDS011;8562;52.246;20.966;2023-02-28T12:40:48;4.50;;;4.03;;
16890;SDS011;8562;52.246;20.966;2023-02-28T12:43:16;7.63;;;4.17;;
16890;SDS011;8562;52.246;20.966;2023-02-28T12:48:11;6.33;;;5.00;;
16890;SDS011;8562;52.246;20.966;2023-02-28T12:50:39;6.07;;;4.93;;
16890;SDS011;8562;52.246;20.966;2023-02-28T12:55:35;8.03;;;4.47;;
16890;SDS011;8562;52.246;20.966;2023-02-28T12:58:07;6.73;;;4.27;;
16890;SDS011;8562;52.246;20.966;2023-02-28T13:00:34;5.00;;;4.37;;
16890;SDS011;8562;52.246;20.966;2023-02-28T13:03:18;6.77;;;4.20;;
16890;SDS011;8562;52.246;20.966;2023-02-28T13:05:49;7.60;;;5.03;;
16890;SDS011;8562;52.246;20.966;2023-02-28T13:10:47;5.63;;;5.13;;
16890;SDS011;8562;52.246;20.966;2023-02-28T13:13:19;7.57;;;4.37;;
16890;SDS011;8562;52.246;20.966;2023-02-28T13:16:05;9.97;;;4.70;;
16890;SDS011;8562;52.246;20.966;2023-02-28T13:21:05;6.20;;;4.30;;
16890;SDS011;8562;52.246;20.966;2023-02-28T13:26:06;5.73;;;4.00;;
16890;SDS011;8562;52.246;20.966;2023-02-28T13:31:22;7.60;;;4.77;;
16890;SDS011;8562;52.246;20.966;2023-02-28T13:34:04;9.80;;;5.53;;
16890;SDS011;8562;52.246;20.966;2023-02-28T13:36:30;5.20;;;3.97;;
16890;SDS011;8562;52.246;20.966;2023-02-28T13:38:59;5.37;;;4.13;;
16890;SDS011;8562;52.246;20.966;2023-02-28T13:44:02;6.20;;;4.17;;
16890;SDS011;8562;52.246;20.966;2023-02-28T13:46:28;5.53;;;3.93;;
16890;SDS011;8562;52.246;20.966;2023-02-28T13:48:53;7.83;;;4.40;;
16890;SDS011;8562;52.246;20.966;2023-02-28T13:51:38;4.67;;;3.70;;
16890;SDS011;8562;52.246;20.966;2023-02-28T14:06:54;6.80;;;4.73;;
16890;SDS011;8562;52.246;20.966;2023-02-28T14:09:26;10.37;;;5.33;;
16890;SDS011;8562;52.246;20.966;2023-02-28T14:11:52;4.57;;;4.00;;
16890;SDS011;8562;52.246;20.966;2023-02-28T14:17:10;7.33;;;4.30;;
16890;SDS011;8562;52.246;20.966;2023-02-28T14:19:37;4.70;;;4.07;;
16890;SDS011;8562;52.246;20.966;2023-02-28T14:33:14;7.10;;;3.47;;
16890;SDS011;8562;52.246;20.966;2023-02-28T14:38:29;5.27;;;3.47;;
16890;SDS011;8562;52.246;20.966;2023-02-28T14:40:56;4.83;;;3.77;;
16890;SDS011;8562;52.246;20.966;2023-02-28T14:43:27;5.43;;;3.37;;
16890;SDS011;8562;52.246;20.966;2023-02-28T14:45:59;5.53;;;4.53;;
16890;SDS011;8562;52.246;20.966;2023-02-28T14:48:25;5.67;;;3.80;;
16890;SDS011;8562;52.246;20.966;2023-02-28T14:50:58;6.07;;;3.83;;
16890;SDS011;8562;52.246;20.966;2023-02-28T14:53:27;5.77;;;4.23;;
16890;SDS011;8562;52.246;20.966;2023-02-28T14:55:53;4.97;;;4.10;;
16890;SDS011;8562;52.246;20.966;2023-02-28T14:58:25;6.30;;;4.13;;
16890;SDS011;8562;52.246;20.966;2023-02-28T15:00:52;6.17;;;4.63;;
16890;SDS011;8562;52.246;20.966;2023-02-28T15:03:20;8.30;;;4.87;;
16890;SDS011;8562;52.246;20.966;2023-02-28T15:05:55;6.00;;;3.93;;
16890;SDS011;8562;52.246;20.966;2023-02-28T15:08:20;8.13;;;4.97;;
16890;SDS011;8562;52.246;20.966;2023-02-28T15:13:17;8.27;;;4.70;;
16890;SDS011;8562;52.246;20.966;2023-02-28T15:18:12;6.50;;;4.60;;
16890;SDS011;8562;52.246;20.966;2023-02-28T15:20:39;9.17;;;4.23;;
16890;SDS011;8562;52.246;20.966;2023-02-28T15:23:07;4.93;;;3.87;;
16890;SDS011;8562;52.246;20.966;2023-02-28T15:25:32;5.60;;;4.20;;
16890;SDS011;8562;52.246;20.966;2023-02-28T15:27:58;6.87;;;4.20;;
16890;SDS011;8562;52.246;20.966;2023-02-28T15:30:25;6.63;;;4.80;;
16890;SDS011;8562;52.246;20.966;2023-02-28T15:35:48;9.60;;;4.83;;
16890;SDS011;8562;52.246;20.966;2023-02-28T15:38:15;7.23;;;4.60;;
16890;SDS011;8562;52.246;20.966;2023-02-28T15:40:42;7.77;;;4.87;;
16890;SDS011;8562;52.246;20.966;2023-02-28T15:43:18;7.60;;;4.40;;
16890;SDS011;8562;52.246;20.966;2023-02-28T15:45:45;10.30;;;5.37;;
16890;SDS011;8562;52.246;20.966;2023-02-28T15:48:24;8.17;;;4.37;;
16890;SDS011;8562;52.246;20.966;2023-02-28T15:50:51;9.63;;;5.43;;
16890;SDS011;8562;52.246;20.966;2023-02-28T15:53:18;6.33;;;4.53;;
16890;SDS011;8562;52.246;20.966;2023-02-28T15:55:44;7.67;;;5.17;;
16890;SDS011;8562;52.246;20.966;2023-02-28T15:58:10;7.27;;;5.40;;
16890;SDS011;8562;52.246;20.966;2023-02-28T16:00:38;5.70;;;5.10;;
16890;SDS011;8562;52.246;20.966;2023-02-28T16:03:22;5.53;;;4.27;;
16890;SDS011;8562;52.246;20.966;2023-02-28T16:05:50;8.00;;;4.53;;
16890;SDS011;8562;52.246;20.966;2023-02-28T16:08:31;7.63;;;5.30;;
16890;SDS011;8562;52.246;20.966;2023-02-28T16:10:56;6.23;;;4.37;;
16890;SDS011;8562;52.246;20.966;2023-02-28T16:13:21;6.13;;;4.93;;
16890;SDS011;8562;52.246;20.966;2023-02-28T16:15:46;6.53;;;4.80;;
16890;SDS011;8562;52.246;20.966;2023-02-28T16:18:14;9.23;;;6.03;;
16890;SDS011;8562;52.246;20.966;2023-02-28T16:20:39;6.60;;;4.80;;
16890;SDS011;8562;52.246;20.966;2023-02-28T16:23:04;9.60;;;4.60;;
16890;SDS011;8562;52.246;20.966;2023-02-28T16:25:37;8.90;;;5.77;;
16890;SDS011;8562;52.246;20.966;2023-02-28T16:28:03;10.53;;;6.17;;
16890;SDS011;8562;52.246;20.966;2023-02-28T16:30:29;7.13;;;5.40;;
16890;SDS011;8562;52.246;20.966;2023-02-28T16:32:57;6.33;;;4.70;;
16890;SDS011;8562;52.246;20.966;2023-02-28T16:35:23;7.07;;;6.33;;
16890;SDS011;8562;52.246;20.966;2023-02-28T16:37:50;10.47;;;5.80;;
16890;SDS011;8562;52.246;20.966;2023-02-28T16:40:17;9.37;;;6.87;;
16890;SDS011;8562;52.246;20.966;2023-02-28T16:42:43;8.57;;;5.97;;
16890;SDS011;8562;52.246;20.966;2023-02-28T16:45:26;11.00;;;6.97;;
16890;SDS011;8562;52.246;20.966;2023-02-28T16:47:52;10.47;;;5.60;;
16890;SDS011;8562;52.246;20.966;2023-02-28T16:50:25;9.03;;;5.93;;
16890;SDS011;8562;52.246;20.966;2023-02-28T16:52:50;9.60;;;6.23;;
16890;SDS011;8562;52.246;20.966;2023-02-28T16:55:19;8.17;;;4.77;;
16890;SDS011;8562;52.246;20.966;2023-02-28T16:57:45;11.60;;;5.60;;
16890;SDS011;8562;52.246;20.966;2023-02-28T17:00:12;9.83;;;6.17;;
16890;SDS011;8562;52.246;20.966;2023-02-28T17:02:38;9.77;;;6.03;;
16890;SDS011;8562;52.246;20.966;2023-02-28T17:05:03;9.60;;;6.00;;
16890;SDS011;8562;52.246;20.966;2023-02-28T17:07:28;7.23;;;5.43;;
16890;SDS011;8562;52.246;20.966;2023-02-28T17:09:54;8.57;;;6.37;;
16890;SDS011;8562;52.246;20.966;2023-02-28T17:12:19;11.53;;;6.43;;
16890;SDS011;8562;52.246;20.966;2023-02-28T17:14:44;10.07;;;5.60;;
16890;SDS011;8562;52.246;20.966;2023-02-28T17:17:13;10.53;;;7.17;;
16890;SDS011;8562;52.246;20.966;2023-02-28T17:19:41;9.97;;;6.70;;
16890;SDS011;8562;52.246;20.966;2023-02-28T17:22:08;7.30;;;5.43;;
16890;SDS011;8562;52.246;20.966;2023-02-28T17:24:33;12.47;;;5.67;;
16890;SDS011;8562;52.246;20.966;2023-02-28T17:26:58;16.97;;;7.47;;
16890;SDS011;8562;52.246;20.966;2023-02-28T17:29:24;8.63;;;6.17;;
16890;SDS011;8562;52.246;20.966;2023-02-28T17:31:49;7.53;;;5.27;;
16890;SDS011;8562;52.246;20.966;2023-02-28T17:34:15;11.47;;;6.40;;
16890;SDS011;8562;52.246;20.966;2023-02-28T17:36:45;10.70;;;7.00;;
16890;SDS011;8562;52.246;20.966;2023-02-28T17:39:11;10.87;;;5.93;;
16890;SDS011;8562;52.246;20.966;2023-02-28T17:41:38;11.60;;;6.97;;
16890;SDS011;8562;52.246;20.966;2023-02-28T17:44:04;11.97;;;8.37;;
16890;SDS011;8562;52.246;20.966;2023-02-28T17:46:29;17.30;;;7.13;;
16890;SDS011;8562;52.246;20.966;2023-02-28T17:48:54;8.30;;;5.63;;
16890;SDS011;8562;52.246;20.966;2023-02-28T17:51:21;9.90;;;5.67;;
16890;SDS011;8562;52.246;20.966;2023-02-28T17:53:47;5.87;;;5.27;;
16890;SDS011;8562;52.246;20.966;2023-02-28T17:56:14;7.23;;;5.67;;
16890;SDS011;8562;52.246;20.966;2023-02-28T17:58:40;7.57;;;5.80;;
16890;SDS011;8562;52.246;20.966;2023-02-28T18:01:06;10.17;;;4.70;;
16890;SDS011;8562;52.246;20.966;2023-02-28T18:03:31;16.00;;;6.10;;
16890;SDS011;8562;52.246;20.966;2023-02-28T18:05:57;9.80;;;6.50;;
16890;SDS011;8562;52.246;20.966;2023-02-28T18:08:22;11.57;;;6.03;;
16890;SDS011;8562;52.246;20.966;2023-02-28T18:10:48;11.77;;;6.33;;
16890;SDS011;8562;52.246;20.966;2023-02-28T18:13:13;7.80;;;5.77;;
16890;SDS011;8562;52.246;20.966;2023-02-28T18:15:38;9.53;;;5.67;;
16890;SDS011;8562;52.246;20.966;2023-02-28T18:18:04;8.17;;;5.17;;
16890;SDS011;8562;52.246;20.966;2023-02-28T18:20:32;12.00;;;6.13;;
16890;SDS011;8562;52.246;20.966;2023-02-28T18:22:57;9.80;;;5.70;;
16890;SDS011;8562;52.246;20.966;2023-02-28T18:25:22;5.57;;;4.97;;
16890;SDS011;8562;52.246;20.966;2023-02-28T18:27:47;8.87;;;5.67;;
16890;SDS011;8562;52.246;20.966;2023-02-28T18:30:23;12.50;;;6.40;;
16890;SDS011;8562;52.246;20.966;2023-02-28T18:32:49;10.83;;;6.20;;
16890;SDS011;8562;52.246;20.966;2023-02-28T18:35:14;14.10;;;6.87;;
16890;SDS011;8562;52.246;20.966;2023-02-28T18:37:39;14.83;;;5.53;;
16890;SDS011;8562;52.246;20.966;2023-02-28T18:40:05;10.67;;;6.17;;
16890;SDS011;8562;52.246;20.966;2023-02-28T18:42:31;13.27;;;7.23;;
16890;SDS011;8562;52.246;20.966;2023-02-28T18:44:56;10.07;;;6.67;;
16890;SDS011;8562;52.246;20.966;2023-02-28T18:47:21;10.73;;;7.90;;
16890;SDS011;8562;52.246;20.966;2023-02-28T18:49:46;10.27;;;5.53;;
16890;SDS011;8562;52.246;20.966;2023-02-28T18:52:12;8.23;;;6.20;;
16890;SDS011;8562;52.246;20.966;2023-02-28T18:54:37;12.73;;;7.73;;
16890;SDS011;8562;52.246;20.966;2023-02-28T18:57:03;13.03;;;8.33;;
16890;SDS011;8562;52.246;20.966;2023-02-28T18:59:28;14.83;;;6.73;;
16890;SDS011;8562;52.246;20.966;2023-02-28T19:01:53;12.70;;;6.73;;
16890;SDS011;8562;52.246;20.966;2023-02-28T19:04:18;13.03;;;7.30;;
16890;SDS011;8562;52.246;20.966;2023-02-28T19:06:44;9.70;;;7.37;;
16890;SDS011;8562;52.246;20.966;2023-02-28T19:09:09;13.83;;;7.77;;
16890;SDS011;8562;52.246;20.966;2023-02-28T19:11:35;14.60;;;7.17;;
16890;SDS011;8562;52.246;20.966;2023-02-28T19:14:00;11.67;;;6.63;;
16890;SDS011;8562;52.246;20.966;2023-02-28T19:16:26;9.17;;;6.03;;
16890;SDS011;8562;52.246;20.966;2023-02-28T19:18:54;13.80;;;7.40;;
16890;SDS011;8562;52.246;20.966;2023-02-28T19:21:21;12.80;;;6.97;;
16890;SDS011;8562;52.246;20.966;2023-02-28T19:23:46;8.90;;;7.67;;
16890;SDS011;8562;52.246;20.966;2023-02-28T19:26:14;18.43;;;9.10;;
16890;SDS011;8562;52.246;20.966;2023-02-28T19:28:40;13.53;;;7.67;;
16890;SDS011;8562;52.246;20.966;2023-02-28T19:31:10;17.07;;;7.33;;
16890;SDS011;8562;52.246;20.966;2023-02-28T19:33:35;12.23;;;7.37;;
16890;SDS011;8562;52.246;20.966;2023-02-28T19:36:01;9.93;;;7.17;;
16890;SDS011;8562;52.246;20.966;2023-02-28T19:38:26;9.67;;;5.80;;
16890;SDS011;8562;52.246;20.966;2023-02-28T19:41:01;14.77;;;8.70;;
16890;SDS011;8562;52.246;20.966;2023-02-28T19:43:27;10.10;;;6.13;;
16890;SDS011;8562;52.246;20.966;2023-02-28T19:45:52;9.67;;;6.67;;
16890;SDS011;8562;52.246;20.966;2023-02-28T19:48:17;20.87;;;7.27;;
16890;SDS011;8562;52.246;20.966;2023-02-28T19:50:43;11.80;;;7.20;;
16890;SDS011;8562;52.246;20.966;2023-02-28T19:53:08;7.97;;;6.37;;
16890;SDS011;8562;52.246;20.966;2023-02-28T19:55:33;12.63;;;6.23;;
16890;SDS011;8562;52.246;20.966;2023-02-28T19:57:58;12.53;;;7.87;;
16890;SDS011;8562;52.246;20.966;2023-02-28T20:00:24;10.50;;;8.00;;
16890;SDS011;8562;52.246;20.966;2023-02-28T20:02:49;14.43;;;7.37;;
16890;SDS011;8562;52.246;20.966;2023-02-28T20:05:15;10.83;;;7.00;;
16890;SDS011;8562;52.246;20.966;2023-02-28T20:07:40;12.37;;;7.60;;
16890;SDS011;8562;52.246;20.966;2023-02-28T20:10:05;18.33;;;6.87;;
16890;SDS011;8562;52.246;20.966;2023-02-28T20:12:31;12.27;;;7.10;;
16890;SDS011;8562;52.246;20.966;2023-02-28T20:14:56;12.50;;;7.17;;
16890;SDS011;8562;52.246;20.966;2023-02-28T20:17:22;13.40;;;8.00;;
16890;SDS011;8562;52.246;20.966;2023-02-28T20:19:48;16.23;;;7.20;;
16890;SDS011;8562;52.246;20.966;2023-02-28T20:22:13;19.47;;;9.23;;
16890;SDS011;8562;52.246;20.966;2023-02-28T20:24:39;15.33;;;7.80;;
16890;SDS011;8562;52.246;20.966;2023-02-28T20:27:04;16.33;;;8.90;;
16890;SDS011;8562;52.246;20.966;2023-02-28T20:29:29;16.50;;;8.20;;
16890;SDS011;8562;52.246;20.966;2023-02-28T20:31:55;14.17;;;8.47;;
16890;SDS011;8562;52.246;20.966;2023-02-28T20:34:21;13.80;;;7.97;;
16890;SDS011;8562;52.246;20.966;2023-02-28T20:36:47;13.10;;;6.80;;
16890;SDS011;8562;52.246;20.966;2023-02-28T20:39:13;12.90;;;7.53;;
16890;SDS011;8562;52.246;20.966;2023-02-28T20:41:38;11.63;;;7.20;;
16890;SDS011;8562;52.246;20.966;2023-02-28T20:44:03;13.13;;;8.90;;
16890;SDS011;8562;52.246;20.966;2023-02-28T20:46:29;9.93;;;6.00;;
16890;SDS011;8562;52.246;20.966;2023-02-28T20:48:55;10.97;;;6.97;;
16890;SDS011;8562;52.246;20.966;2023-02-28T20:51:20;13.33;;;8.70;;
16890;SDS011;8562;52.246;20.966;2023-02-28T20:53:46;17.70;;;8.87;;
16890;SDS011;8562;52.246;20.966;2023-02-28T20:56:12;12.97;;;7.57;;
16890;SDS011;8562;52.246;20.966;2023-02-28T20:58:39;17.97;;;9.23;;
16890;SDS011;8562;52.246;20.966;2023-02-28T21:01:05;14.83;;;8.43;;
16890;SDS011;8562;52.246;20.966;2023-02-28T21:03:37;16.03;;;7.87;;
16890;SDS011;8562;52.246;20.966;2023-02-28T21:06:02;12.70;;;7.30;;
16890;SDS011;8562;52.246;20.966;2023-02-28T21:08:28;12.77;;;8.70;;
16890;SDS011;8562;52.246;20.966;2023-02-28T21:10:53;13.73;;;9.53;;
16890;SDS011;8562;52.246;20.966;2023-02-28T21:13:18;16.93;;;8.47;;
16890;SDS011;8562;52.246;20.966;2023-02-28T21:15:44;14.90;;;8.87;;
16890;SDS011;8562;52.246;20.966;2023-02-28T21:18:09;16.53;;;10.37;;
16890;SDS011;8562;52.246;20.966;2023-02-28T21:20:34;18.17;;;10.00;;
16890;SDS011;8562;52.246;20.966;2023-02-28T21:23:00;15.17;;;8.93;;
16890;SDS011;8562;52.246;20.966;2023-02-28T21:25:25;15.73;;;9.13;;
16890;SDS011;8562;52.246;20.966;2023-02-28T21:27:51;17.83;;;10.20;;
16890;SDS011;8562;52.246;20.966;2023-02-28T21:30:20;18.87;;;8.70;;
16890;SDS011;8562;52.246;20.966;2023-02-28T21:32:45;18.47;;;10.57;;
16890;SDS011;8562;52.246;20.966;2023-02-28T21:35:10;17.67;;;10.50;;
16890;SDS011;8562;52.246;20.966;2023-02-28T21:37:36;12.37;;;8.07;;
16890;SDS011;8562;52.246;20.966;2023-02-28T21:40:02;24.73;;;12.57;;
16890;SDS011;8562;52.246;20.966;2023-02-28T21:42:27;17.03;;;10.57;;
16890;SDS011;8562;52.246;20.966;2023-02-28T21:44:53;19.33;;;11.53;;
16890;SDS011;8562;52.246;20.966;2023-02-28T21:47:21;22.87;;;12.33;;
16890;SDS011;8562;52.246;20.966;2023-02-28T21:49:47;17.23;;;10.80;;
16890;SDS011;8562;52.246;20.966;2023-02-28T21:52:12;20.57;;;12.23;;
16890;SDS011;8562;52.246;20.966;2023-02-28T21:54:37;18.90;;;12.00;;
16890;SDS011;8562;52.246;20.966;2023-02-28T21:57:03;18.90;;;11.10;;
16890;SDS011;8562;52.246;20.966;2023-02-28T21:59:28;23.07;;;13.67;;
16890;SDS011;8562;52.246;20.966;2023-02-28T22:01:53;20.67;;;14.80;;
16890;SDS011;8562;52.246;20.966;2023-02-28T22:04:19;23.37;;;12.83;;
16890;SDS011;8562;52.246;20.966;2023-02-28T22:06:46;21.87;;;13.53;;
16890;SDS011;8562;52.246;20.966;2023-02-28T22:09:11;24.30;;;13.23;;
16890;SDS011;8562;52.246;20.966;2023-02-28T22:11:37;22.17;;;14.43;;
16890;SDS011;8562;52.246;20.966;2023-02-28T22:14:03;22.77;;;16.10;;
16890;SDS011;8562;52.246;20.966;2023-02-28T22:16:29;22.37;;;14.57;;
16890;SDS011;8562;52.246;20.966;2023-02-28T22:19:00;25.93;;;12.63;;
16890;SDS011;8562;52.246;20.966;2023-02-28T22:21:30;28.20;;;13.60;;
16890;SDS011;8562;52.246;20.966;2023-02-28T22:23:56;35.07;;;17.30;;
16890;SDS011;8562;52.246;20.966;2023-02-28T22:26:21;24.53;;;12.93;;
16890;SDS011;8562;52.246;20.966;2023-02-28T22:28:46;22.33;;;13.93;;
16890;SDS011;8562;52.246;20.966;2023-02-28T22:33:37;30.87;;;13.90;;
16890;SDS011;8562;52.246;20.966;2023-02-28T22:36:06;21.43;;;12.97;;
16890;SDS011;8562;52.246;20.966;2023-02-28T22:38:31;23.37;;;13.57;;
16890;SDS011;8562;52.246;20.966;2023-02-28T22:41:00;20.33;;;11.90;;
16890;SDS011;8562;52.246;20.966;2023-02-28T22:43:25;30.93;;;14.33;;
16890;SDS011;8562;52.246;20.966;2023-02-28T22:45:51;20.00;;;11.20;;
16890;SDS011;8562;52.246;20.966;2023-02-28T22:48:16;35.23;;;15.57;;
16890;SDS011;8562;52.246;20.966;2023-02-28T22:50:41;18.87;;;12.33;;
16890;SDS011;8562;52.246;20.966;2023-02-28T22:53:06;17.27;;;12.30;;
16890;SDS011;8562;52.246;20.966;2023-02-28T22:55:32;15.47;;;10.93;;
16890;SDS011;8562;52.246;20.966;2023-02-28T22:57:57;17.70;;;11.00;;
16890;SDS011;8562;52.246;20.966;2023-02-28T23:00:22;29.20;;;13.53;;
16890;SDS011;8562;52.246;20.966;2023-02-28T23:02:48;18.53;;;12.47;;
16890;SDS011;8562;52.246;20.966;2023-02-28T23:05:13;20.50;;;12.03;;
16890;SDS011;8562;52.246;20.966;2023-02-28T23:07:40;26.73;;;12.20;;
16890;SDS011;8562;52.246;20.966;2023-02-28T23:10:06;18.40;;;12.00;;
16890;SDS011;8562;52.246;20.966;2023-02-28T23:12:32;20.10;;;13.00;;
16890;SDS011;8562;52.246;20.966;2023-02-28T23:14:57;23.60;;;12.93;;
16890;SDS011;8562;52.246;20.966;2023-02-28T23:17:22;26.10;;;14.17;;
16890;SDS011;8562;52.246;20.966;2023-02-28T23:19:48;20.90;;;14.20;;
16890;SDS011;8562;52.246;20.966;2023-02-28T23:22:13;17.17;;;12.23;;
16890;SDS011;8562;52.246;20.966;2023-02-28T23:24:38;24.37;;;11.60;;
16890;SDS011;8562;52.246;20.966;2023-02-28T23:27:04;22.23;;;13.20;;
16890;SDS011;8562;52.246;20.966;2023-02-28T23:29:29;27.47;;;13.53;;
16890;SDS011;8562;52.246;20.966;2023-02-28T23:31:56;24.23;;;14.40;;
16890;SDS011;8562;52.246;20.966;2023-02-28T23:34:21;24.13;;;13.87;;
16890;SDS011;8562;52.246;20.966;2023-02-28T23:36:55;27.10;;;12.17;;
16890;SDS011;8562;52.246;20.966;2023-02-28T23:39:20;24.00;;;12.27;;
16890;SDS011;8562;52.246;20.966;2023-02-28T23:41:46;31.00;;;12.43;;
16890;SDS011;8562;52.246;20.966;2023-02-28T23:44:11;20.60;;;12.67;;
16890;SDS011;8562;52.246;20.966;2023-02-28T23:46:44;16.47;;;11.67;;
16890;SDS011;8562;52.246;20.966;2023-02-28T23:49:09;18.67;;;13.27;;
16890;SDS011;8562;52.246;20.966;2023-02-28T23:51:35;26.30;;;13.80;;
16890;SDS011;8562;52.246;20.966;2023-02-28T23:54:00;22.70;;;12.83;;
16890;SDS011;8562;52.246;20.966;2023-02-28T23:56:27;20.07;;;11.43;;
16890;SDS011;8562;52.246;20.966;2023-02-28T23:58:53;36.38;;;21.40;;
